Time;durP1;ratioP1;P1;durP2;ratioP2;P2;SDS_P1;SDS_P2;PMS_P1;PMS_P2;Temp;Humidity;BMP_temperature;BMP_pressure;BME280_temperature;BME280_humidity;BME280_pressure;Samples;Min_cycle;Max_cycle;Signal;HPM_P1;HPM_P2
2021/12/07 00:00:22;;;;;;;32.60;17.90;;;;;;;-1.96;82.74;100267.20;88425;1277;95050;-61
2021/12/07 00:02:42;;;;;;;36.80;19.00;;;;;;;-2.00;82.71;100268.35;88435;1274;78356;-59
2021/12/07 00:04:51;;;;;;;36.00;18.40;;;;;;;-2.03;82.74;100268.75;88465;1271;84305;-62
2021/12/07 00:07:06;;;;;;;32.50;17.80;;;;;;;-2.08;82.72;100269.63;88458;1269;98569;-63
2021/12/07 00:09:20;;;;;;;33.40;17.20;;;;;;;-2.12;82.73;100265.20;88467;1274;88492;-61
2021/12/07 00:11:33;;;;;;;33.20;18.80;;;;;;;-2.12;82.80;100268.02;88445;1274;95443;-61
2021/12/07 00:13:47;;;;;;;33.10;18.30;;;;;;;-2.11;82.89;100272.00;88419;1274;80748;-61
2021/12/07 00:15:57;;;;;;;29.90;17.10;;;;;;;-2.09;82.89;100275.00;88462;1276;80022;-63
2021/12/07 00:18:10;;;;;;;29.50;16.60;;;;;;;-2.09;82.84;100277.84;88444;1274;96855;-70
2021/12/07 00:20:23;;;;;;;36.00;19.00;;;;;;;-2.03;82.99;100278.95;88474;1269;86835;-70
2021/12/07 00:22:36;;;;;;;29.50;16.60;;;;;;;-1.96;82.97;100280.23;88465;1271;95003;-69
2021/12/07 00:24:49;;;;;;;34.30;18.10;;;;;;;-1.95;82.98;100283.16;88415;1275;81466;-69
2021/12/07 00:27:02;;;;;;;32.30;18.50;;;;;;;-1.92;83.15;100287.50;88471;1272;83079;-61
2021/12/07 00:29:14;;;;;;;37.40;19.20;;;;;;;-1.91;83.07;100287.08;88432;1269;98976;-61
2021/12/07 00:31:30;;;;;;;34.30;18.20;;;;;;;-1.91;83.05;100286.55;88462;1274;88918;-70
2021/12/07 00:33:47;;;;;;;36.00;18.90;;;;;;;-1.95;82.99;100285.23;88438;1277;93321;-70
2021/12/07 00:35:57;;;;;;;32.40;17.50;;;;;;;-2.00;82.97;100288.81;88453;1269;77294;-68
2021/12/07 00:38:11;;;;;;;36.70;19.50;;;;;;;-2.06;82.99;100289.79;88425;1275;82910;-69
2021/12/07 00:40:23;;;;;;;36.50;19.30;;;;;;;-2.09;83.11;100293.05;88431;1274;98560;-68
2021/12/07 00:42:35;;;;;;;33.50;18.50;;;;;;;-2.11;83.03;100294.41;88460;1274;87624;-69
2021/12/07 00:44:45;;;;;;;35.20;17.40;;;;;;;-2.09;82.91;100295.16;88454;1274;94616;-70
2021/12/07 00:46:55;;;;;;;31.90;17.30;;;;;;;-2.05;82.90;100300.86;88452;1276;79617;-60
2021/12/07 00:49:06;;;;;;;31.10;17.00;;;;;;;-2.07;82.94;100301.85;88431;1279;80395;-61
2021/12/07 00:51:16;;;;;;;31.10;18.30;;;;;;;-2.04;83.05;100305.02;88451;1271;98537;-70
2021/12/07 00:53:27;;;;;;;32.80;17.10;;;;;;;-2.04;83.05;100305.50;88444;1273;89534;-71
2021/12/07 00:55:41;;;;;;;31.10;17.70;;;;;;;-2.00;83.03;100310.34;88465;1274;93956;-69
2021/12/07 00:57:57;;;;;;;33.20;18.90;;;;;;;-1.97;83.00;100311.52;88415;1269;77942;-62
2021/12/07 01:00:14;;;;;;;34.70;18.70;;;;;;;-1.99;82.98;100314.66;88472;1274;82003;-63
2021/12/07 01:02:24;;;;;;;34.40;18.60;;;;;;;-1.99;82.96;100312.95;88466;1274;97564;-70
2021/12/07 01:04:36;;;;;;;34.30;18.10;;;;;;;-1.99;82.96;100315.92;88426;1269;88314;-70
2021/12/07 01:06:58;;;;;;;34.50;19.70;;;;;;;-2.03;82.81;100320.09;88447;1276;95697;-70
2021/12/07 01:09:16;;;;;;;34.80;18.60;;;;;;;-2.07;82.78;100322.11;88455;1269;79911;-72
2021/12/07 01:26:14;;;;;;;30.90;16.70;;;;;;;-1.88;82.81;100307.69;88430;1270;99325;-63
2021/12/07 01:28:30;;;;;;;28.80;16.80;;;;;;;-1.92;83.04;100309.89;88448;1277;87690;-60
2021/12/07 01:30:48;;;;;;;31.10;17.70;;;;;;;-1.94;82.98;100308.50;88435;1269;94054;-60
2021/12/07 01:33:12;;;;;;;32.90;17.70;;;;;;;-1.93;82.76;100313.58;88426;1269;77879;-62
2021/12/07 01:38:23;;;;;;;31.20;16.80;;;;;;;-2.12;82.82;100317.23;88332;1278;100094;-70
2021/12/07 01:40:45;;;;;;;32.20;18.10;;;;;;;-2.15;82.74;100314.80;88350;1278;89331;-71
2021/12/07 01:43:32;;;;;;;29.80;16.60;;;;;;;-2.17;82.75;100317.63;88328;1278;95093;-60
2021/12/07 01:51:11;;;;;;;29.90;15.70;;;;;;;-2.11;82.59;100315.73;88063;1282;99542;-65
2021/12/07 02:00:46;;;;;;;30.00;16.50;;;;;;;-2.10;82.62;100299.27;88426;1271;82517;-67
2021/12/07 02:02:56;;;;;;;28.70;16.60;;;;;;;-2.09;82.58;100300.80;88433;1269;100094;-68
2021/12/07 02:05:10;;;;;;;29.90;16.40;;;;;;;-2.13;82.60;100300.18;88493;1274;87476;-68
2021/12/07 02:07:20;;;;;;;31.90;17.30;;;;;;;-2.16;82.54;100299.70;88469;1274;93834;-68
2021/12/07 02:09:30;;;;;;;32.40;17.80;;;;;;;-2.17;82.54;100299.62;88449;1276;75960;-69
2021/12/07 02:11:45;;;;;;;33.60;17.20;;;;;;;-2.22;82.62;100296.46;88506;1269;79718;-61
2021/12/07 02:16:25;;;;;;;35.50;17.30;;;;;;;-2.26;82.51;100306.65;88476;1268;87271;-59
2021/12/07 02:18:38;;;;;;;36.30;17.70;;;;;;;-2.26;82.45;100309.05;88452;1274;95491;-60
2021/12/07 02:20:51;;;;;;;31.80;17.30;;;;;;;-2.24;82.65;100317.98;88447;1272;80753;-60
2021/12/07 02:23:03;;;;;;;29.30;15.90;;;;;;;-2.18;82.62;100320.17;88426;1269;83218;-70
2021/12/07 02:25:17;;;;;;;29.10;16.90;;;;;;;-2.14;82.63;100324.63;88436;1273;97471;-69
2021/12/07 02:27:27;;;;;;;;;;;;;;;-2.11;82.66;100326.48;88511;1274;88704;-61
2021/12/07 02:29:39;;;;;;;30.90;16.50;;;;;;;-2.05;82.68;100327.28;88468;1277;94151;-61
2021/12/07 02:31:50;;;;;;;29.60;16.30;;;;;;;-2.04;82.70;100327.73;88423;1272;77127;-61
2021/12/07 02:34:00;;;;;;;32.80;16.90;;;;;;;-2.02;82.66;100328.28;88451;1274;82734;-61
2021/12/07 02:36:10;;;;;;;31.10;16.90;;;;;;;-2.02;82.69;100318.04;88453;1269;98439;-61
2021/12/07 02:38:22;;;;;;;33.40;17.80;;;;;;;-2.05;82.54;100316.70;88469;1276;88647;-62
2021/12/07 02:40:35;;;;;;;37.10;18.90;;;;;;;-2.08;82.55;100314.85;88458;1277;95478;-61
2021/12/07 02:42:48;;;;;;;35.40;17.00;;;;;;;-2.11;82.68;100308.36;88469;1271;77279;-60
2021/12/07 02:44:58;;;;;;;34.20;18.50;;;;;;;-2.13;82.58;100307.80;88466;1276;81658;-60
2021/12/07 02:47:11;;;;;;;35.50;18.60;;;;;;;-2.14;82.54;100305.73;88456;1276;98982;-69
2021/12/07 02:49:21;;;;;;;42.70;21.30;;;;;;;-2.16;82.73;100310.09;88483;1268;88247;-69
2021/12/07 02:51:33;;;;;;;36.60;17.90;;;;;;;-2.18;82.61;100307.09;88439;1274;95405;-61
2021/12/07 02:53:54;;;;;;;36.40;17.30;;;;;;;-2.20;82.57;100312.73;88443;1277;80121;-62
2021/12/07 02:56:05;;;;;;;32.20;16.90;;;;;;;-2.16;82.71;100316.42;88454;1271;82952;-69
2021/12/07 02:58:15;;;;;;;33.30;17.90;;;;;;;-2.07;82.59;100316.53;88427;1271;98712;-69
2021/12/07 03:00:35;;;;;;;32.90;17.00;;;;;;;-2.00;82.60;100313.55;88434;1269;88948;-70
2021/12/07 03:02:50;;;;;;;31.50;16.40;;;;;;;-1.96;82.59;100314.64;88447;1271;94823;-68
2021/12/07 03:05:08;;;;;;;33.00;16.50;;;;;;;-1.99;82.62;100312.92;88449;1270;77615;-69
2021/12/07 03:07:26;;;;;;;32.70;17.10;;;;;;;-2.03;82.62;100311.48;88440;1274;82136;-60
2021/12/07 03:26:44;;;;;;;31.40;16.10;;;;;;;-2.23;82.59;100305.36;88464;1273;94811;-69
2021/12/07 03:28:59;;;;;;;31.10;15.70;;;;;;;-2.20;82.50;100303.70;88439;1271;79758;-70
2021/12/07 03:31:14;;;;;;;27.60;15.60;;;;;;;-2.17;82.50;100304.90;88460;1274;82520;-69
2021/12/07 03:33:23;;;;;;;28.70;14.70;;;;;;;-2.12;82.59;100308.61;88460;1277;97922;-71
2021/12/07 03:35:33;;;;;;;29.00;15.90;;;;;;;-2.12;82.60;100311.05;88472;1276;88721;-70
2021/12/07 03:37:45;;;;;;;31.20;17.00;;;;;;;-2.12;82.56;100311.93;88436;1272;95329;-60
2021/12/07 03:39:58;;;;;;;32.10;16.60;;;;;;;-2.12;82.61;100312.85;88458;1275;78997;-60
2021/12/07 03:42:08;;;;;;;33.60;17.50;;;;;;;-2.13;82.63;100315.70;88493;1271;81695;-60
2021/12/07 03:44:18;;;;;;;31.00;17.00;;;;;;;-2.16;82.55;100315.08;88455;1274;99449;-62
2021/12/07 03:46:31;;;;;;;31.40;16.50;;;;;;;-2.20;82.61;100316.62;88472;1268;88160;-67
2021/12/07 03:48:41;;;;;;;36.50;17.60;;;;;;;-2.23;82.69;100312.61;88442;1273;94494;-68
2021/12/07 03:50:53;;;;;;;36.60;18.60;;;;;;;-2.28;82.79;100313.81;88372;1272;81910;-69
2021/12/07 03:53:05;;;;;;;37.60;18.20;;;;;;;-2.31;82.52;100312.11;88475;1273;81045;-68
2021/12/07 03:55:15;;;;;;;31.30;17.40;;;;;;;-2.29;82.70;100307.04;88442;1275;97548;-69
2021/12/07 03:57:26;;;;;;;32.70;16.40;;;;;;;-2.27;82.61;100303.33;88462;1269;88666;-69
2021/12/07 03:59:36;;;;;;;37.00;17.50;;;;;;;-2.29;82.69;100304.88;88409;1276;95462;-67
2021/12/07 04:01:51;;;;;;;33.40;17.50;;;;;;;-2.27;82.69;100311.96;88492;1272;77758;-69
2021/12/07 04:04:03;;;;;;;36.50;17.50;;;;;;;-2.27;82.75;100310.54;88431;1274;81721;-69
2021/12/07 04:06:16;;;;;;;34.10;16.70;;;;;;;-2.22;82.83;100315.35;88448;1269;99440;-59
2021/12/07 04:08:28;;;;;;;31.10;15.70;;;;;;;-2.20;82.83;100316.80;88458;1269;86542;-60
2021/12/07 04:10:41;;;;;;;32.10;16.80;;;;;;;-2.22;82.62;100323.94;88450;1271;93929;-60
2021/12/07 04:12:51;;;;;;;36.70;17.30;;;;;;;-2.23;82.70;100323.31;88391;1276;78112;-60
2021/12/07 04:15:05;;;;;;;29.70;15.30;;;;;;;-2.25;82.73;100326.66;88471;1277;81150;-60
2021/12/07 04:17:18;;;;;;;34.10;17.60;;;;;;;-2.28;82.71;100328.10;88468;1271;99180;-60
2021/12/07 04:19:27;;;;;;;35.60;17.60;;;;;;;-2.29;82.56;100328.03;88330;1271;88643;-62
2021/12/07 04:21:39;;;;;;;34.60;17.90;;;;;;;-2.34;82.45;100334.57;88443;1276;92778;-60
2021/12/07 04:23:51;;;;;;;32.40;16.40;;;;;;;-2.36;82.64;100339.60;88435;1271;81636;-60
2021/12/07 04:26:01;;;;;;;29.80;15.70;;;;;;;-2.35;82.67;100342.73;88459;1276;82297;-61
2021/12/07 04:28:11;;;;;;;28.20;14.00;;;;;;;-2.30;82.62;100346.95;88425;1274;98811;-61
2021/12/07 04:30:26;;;;;;;28.90;14.50;;;;;;;-2.26;82.50;100347.17;88453;1269;89065;-60
2021/12/07 04:32:35;;;;;;;30.20;15.30;;;;;;;-2.25;82.56;100351.53;88461;1271;95300;-68
2021/12/07 04:34:44;;;;;;;27.80;14.60;;;;;;;-2.21;82.64;100353.34;88442;1271;78036;-69
2021/12/07 04:37:01;;;;;;;29.80;15.40;;;;;;;-2.18;82.69;100352.73;88484;1269;82751;-59
2021/12/07 04:39:13;;;;;;;29.40;14.80;;;;;;;-2.17;82.53;100350.97;88435;1269;99304;-60
2021/12/07 04:41:23;;;;;;;27.60;14.30;;;;;;;-2.18;82.46;100354.88;88455;1269;87797;-61
2021/12/07 04:43:33;;;;;;;33.20;15.80;;;;;;;-2.23;82.48;100354.73;88453;1277;95864;-60
2021/12/07 04:45:57;;;;;;;31.90;14.80;;;;;;;-2.24;82.42;100353.04;88432;1273;79141;-60
2021/12/07 04:48:35;;;;;;;33.30;15.90;;;;;;;-2.30;82.43;100352.58;88439;1269;82109;-69
2021/12/07 04:58:10;;;;;;;29.30;14.40;;;;;;;-2.48;82.24;100337.27;88452;1265;80001;-60
2021/12/07 05:00:24;;;;;;;29.70;14.30;;;;;;;-2.45;82.31;100337.61;88457;1264;81436;-60
2021/12/07 05:02:35;;;;;;;29.60;15.40;;;;;;;-2.44;82.57;100337.73;88496;1276;98813;-68
2021/12/07 05:04:45;;;;;;;34.80;15.80;;;;;;;-2.40;82.46;100336.90;88467;1276;88251;-68
2021/12/07 05:07:01;;;;;;;28.70;14.90;;;;;;;-2.36;82.51;100341.95;88476;1271;94259;-60
2021/12/07 05:09:29;;;;;;;31.70;15.80;;;;;;;-2.31;82.65;100344.02;88457;1271;78810;-61
2021/12/07 05:11:50;;;;;;;31.20;16.40;;;;;;;-2.29;82.56;100349.48;88472;1271;82741;-69
2021/12/07 05:14:15;;;;;;;30.80;15.30;;;;;;;-2.24;82.44;100357.62;88450;1277;99159;-71
2021/12/07 05:16:41;;;;;;;31.20;15.90;;;;;;;-2.28;82.36;100358.83;88475;1276;88366;-69
2021/12/07 05:19:01;;;;;;;32.00;15.30;;;;;;;-2.34;82.36;100365.06;88442;1271;93303;-69
2021/12/07 05:24:00;;;;;;;32.30;15.90;;;;;;;-2.48;82.17;100365.84;88436;1269;83147;-68
2021/12/07 05:38:33;;;;;;;32.10;15.90;;;;;;;-2.39;82.44;100369.80;88438;1269;100404;-60
2021/12/07 05:40:46;;;;;;;31.70;15.40;;;;;;;-2.31;82.39;100372.24;88453;1269;87172;-61
2021/12/07 05:42:59;;;;;;;34.60;17.40;;;;;;;-2.22;82.35;100375.67;88449;1269;94907;-68
2021/12/07 05:45:14;;;;;;;34.00;16.70;;;;;;;-2.21;82.60;100382.45;88464;1268;77976;-68
2021/12/07 05:47:24;;;;;;;35.00;16.20;;;;;;;-2.18;82.44;100383.65;88392;1276;82984;-60
2021/12/07 05:49:36;;;;;;;32.90;15.60;;;;;;;-2.16;82.40;100382.77;88471;1269;98642;-59
2021/12/07 05:51:50;;;;;;;31.80;16.70;;;;;;;-2.11;82.35;100381.55;88329;1270;88679;-67
2021/12/07 05:53:59;;;;;;;35.60;17.90;;;;;;;-2.10;82.24;100379.21;88456;1265;94742;-67
2021/12/07 05:56:13;;;;;;;35.20;18.20;;;;;;;-2.17;82.12;100376.49;88462;1273;77887;-60
2021/12/07 05:58:26;;;;;;;37.20;17.90;;;;;;;-2.26;81.97;100376.10;88514;1269;81467;-60
2021/12/07 06:00:42;;;;;;;37.00;19.40;;;;;;;-2.33;82.02;100375.58;88470;1268;98990;-61
2021/12/07 06:03:03;;;;;;;39.70;19.10;;;;;;;-2.36;82.10;100372.92;88359;1271;89499;-62
2021/12/07 06:05:14;;;;;;;37.70;18.30;;;;;;;-2.40;82.12;100372.30;88298;1270;96753;-62
2021/12/07 06:07:24;;;;;;;38.00;19.20;;;;;;;-2.39;82.29;100370.50;88361;1274;81309;-62
2021/12/07 06:09:37;;;;;;;36.70;18.30;;;;;;;-2.37;82.25;100368.28;88493;1269;83246;-61
2021/12/07 06:11:49;;;;;;;35.40;17.70;;;;;;;-2.32;82.44;100373.38;88505;1271;99216;-63
2021/12/07 06:14:02;;;;;;;40.10;18.10;;;;;;;-2.24;82.43;100370.67;88482;1273;88155;-68
2021/12/07 06:16:16;;;;;;;40.50;18.40;;;;;;;-2.19;82.40;100373.49;88462;1271;94730;-62
2021/12/07 06:18:25;;;;;;;38.70;18.70;;;;;;;-2.17;82.36;100379.69;88439;1271;77169;-60
2021/12/07 06:20:35;;;;;;;32.90;17.50;;;;;;;-2.14;82.22;100379.45;88475;1274;81168;-60
2021/12/07 06:22:48;;;;;;;36.10;17.80;;;;;;;-2.14;82.19;100382.82;88468;1271;100476;-68
2021/12/07 06:25:00;;;;;;;34.30;17.40;;;;;;;-2.17;82.31;100385.86;88475;1271;87078;-74
2021/12/07 06:27:11;;;;;;;40.40;18.50;;;;;;;-2.21;82.34;100384.39;88493;1271;93989;-67
2021/12/07 06:29:24;;;;;;;36.40;17.20;;;;;;;-2.24;82.23;100384.27;88447;1271;77333;-67
2021/12/07 06:31:35;;;;;;;39.80;18.50;;;;;;;-2.35;82.14;100379.58;88484;1270;80548;-61
2021/12/07 06:33:44;;;;;;;44.40;22.80;;;;;;;-2.40;82.20;100376.95;88441;1271;99186;-61
2021/12/07 06:35:59;;;;;;;105.90;51.10;;;;;;;-2.43;82.25;100379.27;88433;1271;88831;-61
2021/12/07 06:38:08;;;;;;;45.40;21.30;;;;;;;-2.40;82.29;100382.71;88453;1262;94026;-68
2021/12/07 06:40:21;;;;;;;35.60;18.60;;;;;;;-2.38;82.28;100388.25;88445;1271;81013;-68
2021/12/07 06:42:41;;;;;;;36.40;19.20;;;;;;;-2.31;82.29;100390.23;88438;1269;82138;-61
2021/12/07 06:44:54;;;;;;;40.70;19.20;;;;;;;-2.30;82.32;100391.38;88453;1271;99446;-60
2021/12/07 06:47:05;;;;;;;39.60;18.60;;;;;;;-2.27;82.32;100393.79;88485;1269;88909;-60
2021/12/07 06:49:22;;;;;;;35.20;18.00;;;;;;;-2.30;82.26;100388.25;88462;1271;95628;-61
2021/12/07 06:51:34;;;;;;;39.40;18.00;;;;;;;-2.28;82.37;100393.38;88453;1272;79776;-72
2021/12/07 06:53:44;;;;;;;41.20;19.20;;;;;;;-2.27;82.27;100393.10;88470;1271;80499;-68
2021/12/07 06:55:57;;;;;;;39.00;19.30;;;;;;;-2.29;82.27;100395.39;88308;1276;99787;-65
2021/12/07 06:58:07;;;;;;;43.90;20.90;;;;;;;-2.35;82.37;100400.60;88478;1274;87851;-62
2021/12/07 07:00:19;;;;;;;41.00;20.60;;;;;;;-2.33;82.34;100402.70;88436;1276;95065;-61
2021/12/07 07:02:29;;;;;;;43.80;20.40;;;;;;;-2.35;82.16;100404.05;88469;1262;79973;-68
2021/12/07 07:04:38;;;;;;;45.40;20.70;;;;;;;-2.37;82.18;100405.81;88467;1271;79213;-68
2021/12/07 07:06:50;;;;;;;41.20;19.10;;;;;;;-2.38;82.12;100404.63;88514;1275;99594;-60
2021/12/07 07:09:05;;;;;;;36.70;19.40;;;;;;;-2.38;82.16;100402.91;88438;1274;87430;-60
2021/12/07 07:11:18;;;;;;;34.60;17.60;;;;;;;-2.34;82.15;100403.88;88460;1271;93834;-69
2021/12/07 07:13:33;;;;;;;38.10;18.60;;;;;;;-2.29;82.21;100403.88;88454;1266;78130;-68
2021/12/07 07:15:53;;;;;;;43.90;21.50;;;;;;;-2.27;82.21;100404.58;88460;1268;80052;-70
2021/12/07 07:18:07;;;;;;;47.40;21.40;;;;;;;-2.24;82.24;100404.02;88449;1273;97536;-60
2021/12/07 07:20:19;;;;;;;43.90;20.80;;;;;;;-2.23;82.19;100412.20;88340;1270;89316;-60
2021/12/07 07:22:33;;;;;;;46.00;23.20;;;;;;;-2.20;82.03;100415.00;88424;1269;96022;-61
2021/12/07 07:24:43;;;;;;;46.40;23.20;;;;;;;-2.26;82.01;100412.09;88439;1274;78230;-61
2021/12/07 07:26:56;;;;;;;47.30;23.70;;;;;;;-2.30;82.00;100417.83;88499;1271;81129;-59
2021/12/07 07:29:05;;;;;;;53.60;24.90;;;;;;;-2.28;81.98;100418.08;88490;1277;100056;-61
2021/12/07 07:31:18;;;;;;;53.80;23.30;;;;;;;-2.31;81.95;100417.02;88454;1269;89511;-61
2021/12/07 07:33:30;;;;;;;51.80;22.20;;;;;;;-2.40;82.05;100421.52;88450;1273;94931;-61
2021/12/07 07:35:42;;;;;;;49.60;24.40;;;;;;;-2.45;82.07;100425.76;88443;1276;78693;-61
2021/12/07 07:37:54;;;;;;;48.20;22.60;;;;;;;-2.43;82.19;100430.91;88350;1278;80911;-69
2021/12/07 07:40:05;;;;;;;47.80;22.80;;;;;;;-2.41;82.15;100425.13;88306;1275;99426;-69
2021/12/07 07:42:14;;;;;;;47.80;20.60;;;;;;;-2.34;82.16;100426.06;88455;1268;88501;-69
2021/12/07 07:44:33;;;;;;;49.10;21.50;;;;;;;-2.27;82.26;100428.56;88456;1271;94874;-69
2021/12/07 07:46:43;;;;;;;47.60;22.00;;;;;;;-2.19;82.09;100431.30;88445;1270;78912;-68
2021/12/07 07:48:53;;;;;;;44.60;20.70;;;;;;;-2.14;82.16;100436.80;88464;1267;82508;-69
2021/12/07 07:51:02;;;;;;;41.60;20.00;;;;;;;-2.12;82.02;100437.89;88462;1269;98274;-62
2021/12/07 07:53:13;;;;;;;41.80;19.80;;;;;;;-2.14;82.01;100437.17;88477;1271;88926;-61
2021/12/07 07:55:22;;;;;;;39.40;21.00;;;;;;;-2.10;81.84;100434.98;88444;1271;93982;-61
2021/12/07 07:57:31;;;;;;;40.40;21.10;;;;;;;-2.14;81.89;100439.42;88430;1276;79418;-60
2021/12/07 07:59:40;;;;;;;38.80;20.20;;;;;;;-2.21;81.91;100433.45;88450;1272;81948;-62
2021/12/07 08:01:50;;;;;;;41.00;20.90;;;;;;;-2.26;81.81;100433.81;88468;1269;99778;-62
2021/12/07 08:04:05;;;;;;;38.60;21.10;;;;;;;-2.25;81.76;100434.10;88456;1274;89127;-62
2021/12/07 08:06:15;;;;;;;42.00;21.90;;;;;;;-2.33;81.81;100437.27;88467;1271;94550;-69
2021/12/07 08:08:27;;;;;;;40.80;19.20;;;;;;;-2.34;81.69;100434.55;88443;1271;80035;-67
2021/12/07 08:10:40;;;;;;;38.20;20.10;;;;;;;-2.37;81.86;100441.23;88420;1271;84005;-60
2021/12/07 08:12:53;;;;;;;37.50;22.30;;;;;;;-2.34;81.88;100447.41;88463;1271;97063;-71
2021/12/07 08:15:03;;;;;;;37.90;20.20;;;;;;;-2.27;81.91;100444.27;88477;1271;88434;-69
2021/12/07 08:17:16;;;;;;;34.90;18.40;;;;;;;-2.25;81.87;100441.96;88454;1271;95171;-63
2021/12/07 08:19:25;;;;;;;36.70;20.60;;;;;;;-2.21;81.93;100445.56;88465;1271;77485;-61
2021/12/07 08:21:37;;;;;;;35.20;17.40;;;;;;;-2.13;81.66;100447.13;88528;1271;81244;-69
2021/12/07 08:23:50;;;;;;;34.10;18.60;;;;;;;-2.05;81.56;100448.67;88454;1271;99642;-68
2021/12/07 08:26:03;;;;;;;29.50;17.20;;;;;;;-2.04;81.30;100452.86;88501;1275;87995;-68
2021/12/07 08:28:19;;;;;;;29.60;17.10;;;;;;;-2.10;81.33;100457.48;88440;1276;94112;-69
2021/12/07 08:30:36;;;;;;;31.80;16.50;;;;;;;-2.11;81.22;100467.08;88469;1276;77454;-69
2021/12/07 08:32:49;;;;;;;36.90;19.00;;;;;;;-2.14;81.08;100469.22;88442;1272;80423;-61
2021/12/07 08:34:59;;;;;;;37.90;19.70;;;;;;;-2.17;81.14;100469.33;88439;1269;98674;-60
2021/12/07 08:37:10;;;;;;;31.70;19.10;;;;;;;-2.20;81.13;100468.81;88504;1269;88461;-61
2021/12/07 08:39:21;;;;;;;33.20;18.10;;;;;;;-2.21;81.13;100470.30;88440;1269;94317;-61
2021/12/07 08:41:34;;;;;;;34.30;16.40;;;;;;;-2.22;81.21;100475.10;88453;1269;79661;-67
2021/12/07 08:43:44;;;;;;;33.90;18.10;;;;;;;-2.20;81.08;100477.28;88485;1276;82021;-65
2021/12/07 08:45:59;;;;;;;33.10;15.90;;;;;;;-2.14;81.11;100476.50;88440;1276;98821;-61
2021/12/07 08:48:09;;;;;;;36.40;16.90;;;;;;;-2.11;81.14;100482.59;88433;1277;89675;-65
2021/12/07 08:50:25;;;;;;;34.00;17.50;;;;;;;-2.10;81.13;100482.89;88470;1269;94551;-65
2021/12/07 08:52:39;;;;;;;31.90;18.00;;;;;;;-2.02;81.18;100484.98;88474;1269;79047;-64
2021/12/07 08:59:46;;;;;;;29.10;16.20;;;;;;;-2.02;80.83;100487.31;88454;1271;89413;-66
2021/12/07 09:01:58;;;;;;;28.50;15.60;;;;;;;-2.06;80.72;100490.38;88499;1271;95637;-61
2021/12/07 09:04:16;;;;;;;32.60;16.40;;;;;;;-2.08;80.72;100491.09;88471;1271;77267;-61
2021/12/07 09:06:29;;;;;;;29.00;16.40;;;;;;;-2.12;80.72;100486.06;88473;1277;82991;-67
2021/12/07 09:08:39;;;;;;;34.00;18.60;;;;;;;-2.12;80.75;100487.33;88463;1271;100270;-66
2021/12/07 09:10:50;;;;;;;32.40;18.00;;;;;;;-2.16;80.70;100486.33;88465;1271;88524;-66
2021/12/07 09:13:02;;;;;;;33.90;18.40;;;;;;;-2.15;80.69;100485.02;88483;1274;95233;-69
2021/12/07 09:15:13;;;;;;;34.80;18.60;;;;;;;-2.16;80.54;100490.92;88455;1271;79687;-65
2021/12/07 09:17:23;;;;;;;33.20;18.10;;;;;;;-2.14;80.61;100490.41;88487;1269;82774;-66
2021/12/07 09:19:33;;;;;;;38.80;18.70;;;;;;;-2.09;80.79;100493.95;88462;1271;99562;-68
2021/12/07 09:21:46;;;;;;;37.50;19.40;;;;;;;-1.99;80.88;100492.35;88461;1266;86810;-65
2021/12/07 09:23:55;;;;;;;33.70;17.60;;;;;;;-1.92;80.72;100501.05;88453;1271;95885;-59
2021/12/07 09:26:06;;;;;;;31.00;16.50;;;;;;;-1.96;80.81;100504.69;88491;1271;77632;-62
2021/12/07 09:28:16;;;;;;;27.40;15.70;;;;;;;-1.93;80.64;100504.30;88473;1269;81352;-60
2021/12/07 09:30:26;;;;;;;27.20;15.20;;;;;;;-1.86;80.57;100496.20;88442;1271;99192;-61
2021/12/07 09:32:39;;;;;;;27.60;15.00;;;;;;;-1.82;80.44;100492.57;88490;1272;88431;-66
2021/12/07 09:34:48;;;;;;;30.50;17.00;;;;;;;-1.77;80.48;100487.78;88436;1269;95801;-60
2021/12/07 09:37:01;;;;;;;26.60;15.40;;;;;;;-1.79;80.15;100489.69;88500;1266;77203;-67
2021/12/07 09:39:13;;;;;;;28.30;15.50;;;;;;;-1.87;80.08;100493.80;88427;1276;81222;-67
2021/12/07 09:42:00;;;;;;;28.20;15.40;;;;;;;-1.92;80.13;100491.13;89851;1264;99559;-65
2021/12/07 09:44:11;;;;;;;27.90;16.90;;;;;;;-1.91;80.22;100489.14;89791;1275;87913;-60
2021/12/07 09:46:20;;;;;;;27.20;14.50;;;;;;;-1.90;80.13;100481.31;89786;1272;93618;-65
2021/12/07 09:48:32;;;;;;;28.00;15.20;;;;;;;-1.87;80.07;100483.74;89780;1271;79243;-65
2021/12/07 09:50:46;;;;;;;26.80;15.30;;;;;;;-1.85;79.92;100479.69;89797;1272;80499;-64
2021/12/07 09:52:55;;;;;;;25.00;13.80;;;;;;;-1.84;79.71;100475.23;89747;1275;98393;-65
2021/12/07 09:55:05;;;;;;;102.10;31.70;;;;;;;-1.78;79.94;100473.20;89755;1275;87929;-65
2021/12/07 09:57:14;;;;;;;53.30;21.10;;;;;;;-1.73;79.81;100469.89;89746;1275;95137;-65
2021/12/07 09:59:26;;;;;;;46.60;20.60;;;;;;;-1.76;80.03;100471.34;89739;1275;79098;-65
2021/12/07 10:01:38;;;;;;;81.10;27.40;;;;;;;-1.67;80.20;100473.16;89769;1275;80749;-61
2021/12/07 10:03:51;;;;;;;62.20;22.90;;;;;;;-1.56;80.36;100470.20;89745;1275;100203;-60
2021/12/07 10:06:00;;;;;;;88.60;29.00;;;;;;;-1.53;80.25;100471.41;89756;1275;87933;-61
2021/12/07 10:08:14;;;;;;;107.40;36.30;;;;;;;-1.53;80.04;100468.58;89736;1275;95481;-65
2021/12/07 10:10:31;;;;;;;69.20;26.80;;;;;;;-1.49;80.02;100466.86;89749;1275;77619;-65
2021/12/07 10:12:43;;;;;;;68.80;27.10;;;;;;;-1.46;79.72;100466.97;89755;1265;81499;-65
2021/12/07 10:14:52;;;;;;;44.30;19.90;;;;;;;-1.46;79.73;100464.20;89758;1275;99467;-65
2021/12/07 10:17:04;;;;;;;33.20;16.40;;;;;;;-1.47;79.69;100469.52;89770;1275;88572;-65
2021/12/07 10:19:15;;;;;;;28.20;15.70;;;;;;;-1.58;79.29;100467.35;89759;1275;92340;-60
2021/12/07 10:21:28;;;;;;;27.10;15.70;;;;;;;-1.63;79.41;100465.10;89733;1274;77826;-65
2021/12/07 10:23:45;;;;;;;25.10;14.60;;;;;;;-1.70;79.52;100466.48;89764;1275;83053;-64
2021/12/07 10:26:00;;;;;;;24.50;13.20;;;;;;;-1.72;79.46;100472.08;89741;1274;98770;-60
2021/12/07 10:28:27;;;;;;;23.50;13.90;;;;;;;-1.76;79.18;100466.89;89757;1274;87687;-60
2021/12/07 10:30:39;;;;;;;21.10;12.90;;;;;;;-1.80;79.20;100466.67;89739;1274;94665;-62
2021/12/07 10:33:05;;;;;;;21.10;12.80;;;;;;;-1.73;79.25;100465.84;89741;1275;79411;-60
2021/12/07 10:38:35;;;;;;;21.60;15.30;;;;;;;-1.43;79.34;100453.55;85716;1316;601620;-62
2021/12/07 10:41:03;;;;;;;26.40;15.20;;;;;;;-1.30;79.55;100451.71;88111;1288;79866;-62
2021/12/07 10:43:16;;;;;;;32.40;16.00;;;;;;;-1.15;79.47;100455.70;88187;1291;81453;-69
2021/12/07 10:45:31;;;;;;;32.90;16.40;;;;;;;-1.13;79.13;100456.59;88679;1276;95622;-67
2021/12/07 10:47:41;;;;;;;27.40;14.70;;;;;;;-1.15;78.83;100457.48;88663;1276;88088;-65
2021/12/07 10:49:54;;;;;;;22.50;14.20;;;;;;;-1.15;79.25;100455.38;88680;1279;95682;-65
2021/12/07 10:52:33;;;;;;;33.20;18.00;;;;;;;-1.18;79.08;100450.10;86414;1276;3090114;-64
2021/12/07 10:54:47;;;;;;;38.90;17.90;;;;;;;-1.16;79.04;100450.27;88820;1276;82424;-65
2021/12/07 10:56:59;;;;;;;33.90;17.80;;;;;;;-1.13;79.17;100451.85;88837;1273;96957;-63
2021/12/07 10:59:10;;;;;;;36.40;18.20;;;;;;;-1.24;79.11;100457.55;88850;1270;87415;-63
2021/12/07 11:01:38;;;;;;;44.10;20.20;;;;;;;-1.26;79.06;100459.17;88831;1277;94966;-63
2021/12/07 11:03:48;;;;;;;38.50;19.00;;;;;;;-1.21;79.12;100454.34;88810;1273;79747;-64
2021/12/07 11:06:01;;;;;;;39.00;18.00;;;;;;;-1.14;79.22;100454.91;88819;1276;82589;-61
2021/12/07 11:08:13;;;;;;;33.40;16.30;;;;;;;-1.11;79.12;100453.42;88813;1273;97982;-62
2021/12/07 11:10:30;;;;;;;27.50;15.10;;;;;;;-1.02;79.10;100452.61;88826;1274;86282;-62
2021/12/07 11:12:49;;;;;;;26.60;14.70;;;;;;;-0.94;79.05;100454.45;88810;1273;95175;-62
2021/12/07 11:15:10;;;;;;;26.10;15.60;;;;;;;-0.88;78.88;100454.19;88785;1273;79184;-62
2021/12/07 11:17:25;;;;;;;26.40;14.90;;;;;;;-0.88;78.91;100453.27;88842;1277;82170;-61
2021/12/07 11:19:37;;;;;;;20.10;10.60;;;;;;;-0.89;78.75;100448.71;88860;1272;98637;-62
2021/12/07 11:21:51;;;;;;;25.40;14.30;;;;;;;-0.84;78.78;100446.41;88843;1273;85963;-65
2021/12/07 11:24:00;;;;;;;30.20;15.60;;;;;;;-0.80;78.82;100451.96;88811;1274;95343;-64
2021/12/07 11:31:24;;;;;;;27.50;15.50;;;;;;;-0.87;78.41;100456.18;88838;1273;97762;-61